sensor_id;sensor_type;location;lat;lon;timestamp;P1;durP1;ratioP1;P2;durP2;ratioP2
27666;SDS011;15074;50.940;5.282;2023-04-09T00:01:40;42.47;;;26.17;;
27666;SDS011;15074;50.940;5.282;2023-04-09T00:04:06;38.05;;;25.50;;
27666;SDS011;15074;50.940;5.282;2023-04-09T00:06:31;41.42;;;25.17;;
27666;SDS011;15074;50.940;5.282;2023-04-09T00:08:57;43.33;;;25.85;;
27666;SDS011;15074;50.940;5.282;2023-04-09T00:11:23;43.42;;;26.23;;
27666;SDS011;15074;50.940;5.282;2023-04-09T00:13:48;40.55;;;25.38;;
27666;SDS011;15074;50.940;5.282;2023-04-09T00:16:14;41.90;;;23.98;;
27666;SDS011;15074;50.940;5.282;2023-04-09T00:18:39;41.97;;;23.98;;
27666;SDS011;15074;50.940;5.282;2023-04-09T00:21:05;48.60;;;26.15;;
27666;SDS011;15074;50.940;5.282;2023-04-09T00:23:32;47.80;;;24.60;;
27666;SDS011;15074;50.940;5.282;2023-04-09T00:25:59;42.58;;;25.05;;
27666;SDS011;15074;50.940;5.282;2023-04-09T00:28:25;35.33;;;22.05;;
27666;SDS011;15074;50.940;5.282;2023-04-09T00:30:51;37.03;;;22.40;;
27666;SDS011;15074;50.940;5.282;2023-04-09T00:33:16;41.30;;;23.08;;
27666;SDS011;15074;50.940;5.282;2023-04-09T00:35:42;33.08;;;21.88;;
27666;SDS011;15074;50.940;5.282;2023-04-09T00:38:08;37.15;;;22.52;;
27666;SDS011;15074;50.940;5.282;2023-04-09T00:40:33;38.10;;;23.20;;
27666;SDS011;15074;50.940;5.282;2023-04-09T00:42:59;42.65;;;24.05;;
27666;SDS011;15074;50.940;5.282;2023-04-09T00:45:26;40.55;;;24.48;;
27666;SDS011;15074;50.940;5.282;2023-04-09T00:47:52;41.60;;;24.45;;
27666;SDS011;15074;50.940;5.282;2023-04-09T00:50:18;42.15;;;25.15;;
27666;SDS011;15074;50.940;5.282;2023-04-09T00:52:45;42.75;;;24.52;;
27666;SDS011;15074;50.940;5.282;2023-04-09T00:55:10;41.28;;;24.38;;
27666;SDS011;15074;50.940;5.282;2023-04-09T00:57:37;38.85;;;23.23;;
27666;SDS011;15074;50.940;5.282;2023-04-09T01:00:03;39.28;;;23.67;;
27666;SDS011;15074;50.940;5.282;2023-04-09T01:02:31;46.05;;;23.90;;
27666;SDS011;15074;50.940;5.282;2023-04-09T01:04:57;50.53;;;25.33;;
27666;SDS011;15074;50.940;5.282;2023-04-09T01:13:17;43.30;;;23.23;;
27666;SDS011;15074;50.940;5.282;2023-04-09T01:15:51;39.35;;;23.02;;
27666;SDS011;15074;50.940;5.282;2023-04-09T01:18:21;36.47;;;22.55;;
27666;SDS011;15074;50.940;5.282;2023-04-09T01:20:59;42.83;;;24.40;;
27666;SDS011;15074;50.940;5.282;2023-04-09T01:30:59;49.30;;;24.55;;
27666;SDS011;15074;50.940;5.282;2023-04-09T01:33:30;42.65;;;25.30;;
27666;SDS011;15074;50.940;5.282;2023-04-09T01:35:57;44.22;;;25.40;;
27666;SDS011;15074;50.940;5.282;2023-04-09T01:38:24;50.50;;;27.05;;
27666;SDS011;15074;50.940;5.282;2023-04-09T01:40:51;51.53;;;26.45;;
27666;SDS011;15074;50.940;5.282;2023-04-09T01:43:20;45.17;;;26.00;;
27666;SDS011;15074;50.940;5.282;2023-04-09T01:45:46;50.15;;;25.90;;
27666;SDS011;15074;50.940;5.282;2023-04-09T01:48:13;52.95;;;27.15;;
27666;SDS011;15074;50.940;5.282;2023-04-09T01:50:40;52.05;;;28.42;;
27666;SDS011;15074;50.940;5.282;2023-04-09T01:53:06;52.95;;;26.98;;
27666;SDS011;15074;50.940;5.282;2023-04-09T01:55:32;47.03;;;27.10;;
27666;SDS011;15074;50.940;5.282;2023-04-09T01:57:58;50.25;;;27.00;;
27666;SDS011;15074;50.940;5.282;2023-04-09T02:00:24;47.03;;;26.02;;
27666;SDS011;15074;50.940;5.282;2023-04-09T02:03:04;45.38;;;26.58;;
27666;SDS011;15074;50.940;5.282;2023-04-09T02:05:37;48.50;;;26.02;;
27666;SDS011;15074;50.940;5.282;2023-04-09T02:08:08;45.03;;;25.55;;
27666;SDS011;15074;50.940;5.282;2023-04-09T02:10:41;48.20;;;27.25;;
27666;SDS011;15074;50.940;5.282;2023-04-09T02:13:10;47.22;;;26.48;;
27666;SDS011;15074;50.940;5.282;2023-04-09T02:15:39;54.97;;;28.08;;
27666;SDS011;15074;50.940;5.282;2023-04-09T02:18:19;50.45;;;27.75;;
27666;SDS011;15074;50.940;5.282;2023-04-09T02:20:52;51.15;;;26.65;;
27666;SDS011;15074;50.940;5.282;2023-04-09T02:23:21;50.03;;;27.52;;
27666;SDS011;15074;50.940;5.282;2023-04-09T02:25:47;49.70;;;26.85;;
27666;SDS011;15074;50.940;5.282;2023-04-09T02:28:13;49.83;;;26.48;;
27666;SDS011;15074;50.940;5.282;2023-04-09T02:30:39;52.38;;;27.85;;
27666;SDS011;15074;50.940;5.282;2023-04-09T02:33:05;55.25;;;26.30;;
27666;SDS011;15074;50.940;5.282;2023-04-09T02:35:30;51.30;;;27.00;;
27666;SDS011;15074;50.940;5.282;2023-04-09T02:37:56;49.13;;;26.65;;
27666;SDS011;15074;50.940;5.282;2023-04-09T02:40:22;52.28;;;27.92;;
27666;SDS011;15074;50.940;5.282;2023-04-09T02:42:48;57.03;;;26.50;;
27666;SDS011;15074;50.940;5.282;2023-04-09T02:45:14;55.38;;;29.63;;
27666;SDS011;15074;50.940;5.282;2023-04-09T02:47:40;55.72;;;27.95;;
27666;SDS011;15074;50.940;5.282;2023-04-09T02:50:05;55.60;;;28.35;;
27666;SDS011;15074;50.940;5.282;2023-04-09T02:52:31;57.78;;;27.50;;
27666;SDS011;15074;50.940;5.282;2023-04-09T02:54:57;48.20;;;27.00;;
27666;SDS011;15074;50.940;5.282;2023-04-09T02:57:23;44.90;;;25.45;;
27666;SDS011;15074;50.940;5.282;2023-04-09T02:59:48;43.75;;;25.77;;
27666;SDS011;15074;50.940;5.282;2023-04-09T03:02:14;46.92;;;25.33;;
27666;SDS011;15074;50.940;5.282;2023-04-09T03:04:40;49.92;;;26.67;;
27666;SDS011;15074;50.940;5.282;2023-04-09T03:07:05;39.40;;;23.63;;
27666;SDS011;15074;50.940;5.282;2023-04-09T03:09:31;38.58;;;23.00;;
27666;SDS011;15074;50.940;5.282;2023-04-09T03:11:57;35.42;;;22.80;;
27666;SDS011;15074;50.940;5.282;2023-04-09T03:14:23;39.40;;;23.05;;
27666;SDS011;15074;50.940;5.282;2023-04-09T03:16:48;46.00;;;25.45;;
27666;SDS011;15074;50.940;5.282;2023-04-09T03:19:14;49.28;;;25.85;;
27666;SDS011;15074;50.940;5.282;2023-04-09T03:21:40;59.17;;;27.60;;
27666;SDS011;15074;50.940;5.282;2023-04-09T03:24:06;57.67;;;29.60;;
27666;SDS011;15074;50.940;5.282;2023-04-09T03:26:32;61.17;;;31.50;;
27666;SDS011;15074;50.940;5.282;2023-04-09T03:29:00;65.68;;;29.13;;
27666;SDS011;15074;50.940;5.282;2023-04-09T03:31:27;61.08;;;28.45;;
27666;SDS011;15074;50.940;5.282;2023-04-09T03:33:52;57.50;;;27.05;;
27666;SDS011;15074;50.940;5.282;2023-04-09T03:36:18;57.20;;;29.83;;
27666;SDS011;15074;50.940;5.282;2023-04-09T03:38:44;56.78;;;27.98;;
27666;SDS011;15074;50.940;5.282;2023-04-09T03:41:09;62.85;;;29.52;;
27666;SDS011;15074;50.940;5.282;2023-04-09T03:43:35;60.67;;;28.50;;
27666;SDS011;15074;50.940;5.282;2023-04-09T03:46:01;62.95;;;28.48;;
27666;SDS011;15074;50.940;5.282;2023-04-09T03:48:35;55.30;;;27.77;;
27666;SDS011;15074;50.940;5.282;2023-04-09T03:51:01;62.90;;;29.08;;
27666;SDS011;15074;50.940;5.282;2023-04-09T03:53:26;61.47;;;28.73;;
27666;SDS011;15074;50.940;5.282;2023-04-09T03:55:52;65.57;;;28.40;;
27666;SDS011;15074;50.940;5.282;2023-04-09T03:58:18;76.90;;;32.35;;
27666;SDS011;15074;50.940;5.282;2023-04-09T04:00:43;71.18;;;30.70;;
27666;SDS011;15074;50.940;5.282;2023-04-09T04:03:10;67.50;;;30.80;;
27666;SDS011;15074;50.940;5.282;2023-04-09T04:05:38;73.45;;;32.03;;
27666;SDS011;15074;50.940;5.282;2023-04-09T04:08:04;80.97;;;34.13;;
27666;SDS011;15074;50.940;5.282;2023-04-09T04:10:30;75.68;;;32.88;;
27666;SDS011;15074;50.940;5.282;2023-04-09T04:12:57;78.28;;;33.08;;
27666;SDS011;15074;50.940;5.282;2023-04-09T04:15:23;78.70;;;31.65;;
27666;SDS011;15074;50.940;5.282;2023-04-09T04:17:48;72.07;;;31.80;;
27666;SDS011;15074;50.940;5.282;2023-04-09T04:20:14;76.45;;;32.80;;
27666;SDS011;15074;50.940;5.282;2023-04-09T04:22:40;62.28;;;30.80;;
27666;SDS011;15074;50.940;5.282;2023-04-09T04:25:05;70.65;;;31.00;;
27666;SDS011;15074;50.940;5.282;2023-04-09T04:27:31;61.63;;;28.33;;
27666;SDS011;15074;50.940;5.282;2023-04-09T04:29:57;59.10;;;28.20;;
27666;SDS011;15074;50.940;5.282;2023-04-09T04:32:24;57.67;;;27.83;;
27666;SDS011;15074;50.940;5.282;2023-04-09T04:34:50;64.97;;;28.73;;
27666;SDS011;15074;50.940;5.282;2023-04-09T04:37:15;66.03;;;29.08;;
27666;SDS011;15074;50.940;5.282;2023-04-09T04:39:41;66.45;;;28.17;;
27666;SDS011;15074;50.940;5.282;2023-04-09T04:42:06;65.43;;;29.45;;
27666;SDS011;15074;50.940;5.282;2023-04-09T04:44:32;66.75;;;29.15;;
27666;SDS011;15074;50.940;5.282;2023-04-09T04:46:58;65.82;;;28.90;;
27666;SDS011;15074;50.940;5.282;2023-04-09T04:49:23;69.35;;;30.55;;
27666;SDS011;15074;50.940;5.282;2023-04-09T04:51:49;79.15;;;31.85;;
27666;SDS011;15074;50.940;5.282;2023-04-09T04:54:15;82.70;;;31.95;;
27666;SDS011;15074;50.940;5.282;2023-04-09T04:56:40;77.03;;;32.90;;
27666;SDS011;15074;50.940;5.282;2023-04-09T05:02:33;80.68;;;32.88;;
27666;SDS011;15074;50.940;5.282;2023-04-09T05:04:58;75.05;;;31.48;;
27666;SDS011;15074;50.940;5.282;2023-04-09T05:07:24;78.82;;;34.10;;
27666;SDS011;15074;50.940;5.282;2023-04-09T05:09:50;81.97;;;33.17;;
27666;SDS011;15074;50.940;5.282;2023-04-09T05:12:16;76.22;;;32.47;;
27666;SDS011;15074;50.940;5.282;2023-04-09T05:14:42;85.13;;;32.75;;
27666;SDS011;15074;50.940;5.282;2023-04-09T05:17:08;83.80;;;33.33;;
27666;SDS011;15074;50.940;5.282;2023-04-09T05:19:33;83.20;;;32.97;;
27666;SDS011;15074;50.940;5.282;2023-04-09T05:21:59;80.95;;;32.30;;
27666;SDS011;15074;50.940;5.282;2023-04-09T05:24:25;84.57;;;32.80;;
27666;SDS011;15074;50.940;5.282;2023-04-09T05:26:51;75.25;;;33.80;;
27666;SDS011;15074;50.940;5.282;2023-04-09T05:29:16;76.15;;;32.17;;
27666;SDS011;15074;50.940;5.282;2023-04-09T05:31:42;74.65;;;31.63;;
27666;SDS011;15074;50.940;5.282;2023-04-09T05:34:07;82.38;;;32.38;;
27666;SDS011;15074;50.940;5.282;2023-04-09T05:36:33;73.75;;;31.83;;
27666;SDS011;15074;50.940;5.282;2023-04-09T05:38:59;59.47;;;27.95;;
27666;SDS011;15074;50.940;5.282;2023-04-09T05:41:25;62.25;;;28.67;;
27666;SDS011;15074;50.940;5.282;2023-04-09T05:43:50;60.15;;;27.10;;
27666;SDS011;15074;50.940;5.282;2023-04-09T05:46:16;49.53;;;25.65;;
27666;SDS011;15074;50.940;5.282;2023-04-09T05:48:41;55.45;;;26.83;;
27666;SDS011;15074;50.940;5.282;2023-04-09T05:51:07;58.90;;;25.98;;
27666;SDS011;15074;50.940;5.282;2023-04-09T05:53:34;54.80;;;24.27;;
27666;SDS011;15074;50.940;5.282;2023-04-09T05:55:59;53.90;;;25.20;;
27666;SDS011;15074;50.940;5.282;2023-04-09T05:58:27;47.53;;;25.88;;
27666;SDS011;15074;50.940;5.282;2023-04-09T06:00:53;44.33;;;24.38;;
27666;SDS011;15074;50.940;5.282;2023-04-09T06:03:19;43.17;;;23.40;;
27666;SDS011;15074;50.940;5.282;2023-04-09T06:05:44;45.40;;;25.70;;
27666;SDS011;15074;50.940;5.282;2023-04-09T06:08:10;50.53;;;25.95;;
27666;SDS011;15074;50.940;5.282;2023-04-09T06:10:38;39.97;;;24.27;;
27666;SDS011;15074;50.940;5.282;2023-04-09T06:13:03;32.85;;;21.88;;
27666;SDS011;15074;50.940;5.282;2023-04-09T06:15:30;36.47;;;22.77;;
27666;SDS011;15074;50.940;5.282;2023-04-09T06:17:55;39.03;;;24.63;;
27666;SDS011;15074;50.940;5.282;2023-04-09T06:20:21;52.92;;;30.35;;
27666;SDS011;15074;50.940;5.282;2023-04-09T06:22:47;46.40;;;27.55;;
27666;SDS011;15074;50.940;5.282;2023-04-09T06:25:12;52.50;;;31.30;;
27666;SDS011;15074;50.940;5.282;2023-04-09T06:27:38;61.30;;;32.78;;
27666;SDS011;15074;50.940;5.282;2023-04-09T06:30:04;55.85;;;31.20;;
27666;SDS011;15074;50.940;5.282;2023-04-09T06:32:30;51.65;;;30.42;;
27666;SDS011;15074;50.940;5.282;2023-04-09T06:34:56;51.05;;;29.58;;
27666;SDS011;15074;50.940;5.282;2023-04-09T06:37:21;51.92;;;30.95;;
27666;SDS011;15074;50.940;5.282;2023-04-09T06:39:47;51.72;;;32.08;;
27666;SDS011;15074;50.940;5.282;2023-04-09T06:42:13;49.85;;;30.90;;
27666;SDS011;15074;50.940;5.282;2023-04-09T06:44:38;50.35;;;30.20;;
27666;SDS011;15074;50.940;5.282;2023-04-09T06:47:04;48.40;;;30.48;;
27666;SDS011;15074;50.940;5.282;2023-04-09T06:49:31;45.28;;;30.20;;
27666;SDS011;15074;50.940;5.282;2023-04-09T06:51:57;43.90;;;29.25;;
27666;SDS011;15074;50.940;5.282;2023-04-09T06:54:23;37.60;;;27.40;;
27666;SDS011;15074;50.940;5.282;2023-04-09T06:56:49;43.20;;;29.02;;
27666;SDS011;15074;50.940;5.282;2023-04-09T06:59:15;45.40;;;29.05;;
27666;SDS011;15074;50.940;5.282;2023-04-09T07:01:41;41.75;;;29.42;;
27666;SDS011;15074;50.940;5.282;2023-04-09T07:04:07;47.13;;;30.88;;
27666;SDS011;15074;50.940;5.282;2023-04-09T07:06:32;41.63;;;29.80;;
27666;SDS011;15074;50.940;5.282;2023-04-09T07:08:58;48.42;;;30.60;;
27666;SDS011;15074;50.940;5.282;2023-04-09T07:11:24;43.67;;;29.83;;
27666;SDS011;15074;50.940;5.282;2023-04-09T07:13:50;47.28;;;33.42;;
27666;SDS011;15074;50.940;5.282;2023-04-09T07:16:16;50.25;;;33.28;;
27666;SDS011;15074;50.940;5.282;2023-04-09T07:18:42;55.58;;;34.92;;
27666;SDS011;15074;50.940;5.282;2023-04-09T07:21:07;56.42;;;34.05;;
27666;SDS011;15074;50.940;5.282;2023-04-09T07:23:33;54.78;;;33.60;;
27666;SDS011;15074;50.940;5.282;2023-04-09T07:26:03;57.65;;;32.83;;
27666;SDS011;15074;50.940;5.282;2023-04-09T07:28:29;54.63;;;33.55;;
27666;SDS011;15074;50.940;5.282;2023-04-09T07:30:56;62.60;;;35.30;;
27666;SDS011;15074;50.940;5.282;2023-04-09T07:33:22;62.78;;;34.78;;
27666;SDS011;15074;50.940;5.282;2023-04-09T07:35:48;56.95;;;34.00;;
27666;SDS011;15074;50.940;5.282;2023-04-09T07:38:14;58.35;;;32.78;;
27666;SDS011;15074;50.940;5.282;2023-04-09T07:40:40;60.25;;;34.67;;
27666;SDS011;15074;50.940;5.282;2023-04-09T07:43:06;59.85;;;34.92;;
27666;SDS011;15074;50.940;5.282;2023-04-09T07:45:31;59.85;;;32.75;;
27666;SDS011;15074;50.940;5.282;2023-04-09T07:47:57;58.97;;;33.90;;
27666;SDS011;15074;50.940;5.282;2023-04-09T07:50:23;58.70;;;34.10;;
27666;SDS011;15074;50.940;5.282;2023-04-09T07:52:48;58.03;;;33.53;;
27666;SDS011;15074;50.940;5.282;2023-04-09T07:55:14;52.42;;;31.88;;
27666;SDS011;15074;50.940;5.282;2023-04-09T07:57:40;50.15;;;31.80;;
27666;SDS011;15074;50.940;5.282;2023-04-09T08:00:07;52.50;;;31.83;;
27666;SDS011;15074;50.940;5.282;2023-04-09T08:02:33;51.20;;;30.95;;
27666;SDS011;15074;50.940;5.282;2023-04-09T08:04:59;45.03;;;29.48;;
27666;SDS011;15074;50.940;5.282;2023-04-09T08:07:24;50.92;;;29.02;;
27666;SDS011;15074;50.940;5.282;2023-04-09T08:09:50;44.63;;;29.70;;
27666;SDS011;15074;50.940;5.282;2023-04-09T08:12:16;45.78;;;28.40;;
27666;SDS011;15074;50.940;5.282;2023-04-09T08:14:42;43.35;;;28.95;;
27666;SDS011;15074;50.940;5.282;2023-04-09T08:17:07;41.92;;;27.83;;
27666;SDS011;15074;50.940;5.282;2023-04-09T08:19:33;37.53;;;26.65;;
27666;SDS011;15074;50.940;5.282;2023-04-09T08:22:00;31.50;;;24.30;;
27666;SDS011;15074;50.940;5.282;2023-04-09T08:24:26;30.45;;;24.70;;
27666;SDS011;15074;50.940;5.282;2023-04-09T08:26:52;32.67;;;25.52;;
27666;SDS011;15074;50.940;5.282;2023-04-09T08:29:18;29.80;;;24.27;;
27666;SDS011;15074;50.940;5.282;2023-04-09T08:31:44;28.73;;;24.27;;
27666;SDS011;15074;50.940;5.282;2023-04-09T08:34:09;30.98;;;24.88;;
27666;SDS011;15074;50.940;5.282;2023-04-09T08:36:35;31.60;;;25.23;;
27666;SDS011;15074;50.940;5.282;2023-04-09T08:39:01;30.05;;;24.63;;
27666;SDS011;15074;50.940;5.282;2023-04-09T08:41:27;30.20;;;24.05;;
27666;SDS011;15074;50.940;5.282;2023-04-09T08:43:54;31.38;;;24.58;;
27666;SDS011;15074;50.940;5.282;2023-04-09T08:46:20;27.48;;;23.38;;
27666;SDS011;15074;50.940;5.282;2023-04-09T08:48:47;31.30;;;25.10;;
27666;SDS011;15074;50.940;5.282;2023-04-09T08:51:14;31.38;;;24.92;;
27666;SDS011;15074;50.940;5.282;2023-04-09T08:53:48;27.73;;;21.60;;
27666;SDS011;15074;50.940;5.282;2023-04-09T08:56:20;27.85;;;22.88;;
27666;SDS011;15074;50.940;5.282;2023-04-09T08:58:46;33.55;;;23.10;;
27666;SDS011;15074;50.940;5.282;2023-04-09T09:04:06;29.75;;;21.63;;
27666;SDS011;15074;50.940;5.282;2023-04-09T09:06:33;26.33;;;21.13;;
27666;SDS011;15074;50.940;5.282;2023-04-09T09:09:21;24.90;;;22.20;;
27666;SDS011;15074;50.940;5.282;2023-04-09T09:11:47;28.75;;;22.65;;
27666;SDS011;15074;50.940;5.282;2023-04-09T09:14:15;24.35;;;20.33;;
27666;SDS011;15074;50.940;5.282;2023-04-09T09:21:55;23.30;;;19.55;;
27666;SDS011;15074;50.940;5.282;2023-04-09T09:24:21;20.90;;;18.83;;
27666;SDS011;15074;50.940;5.282;2023-04-09T09:26:47;20.85;;;18.85;;
27666;SDS011;15074;50.940;5.282;2023-04-09T09:29:13;18.85;;;17.13;;
27666;SDS011;15074;50.940;5.282;2023-04-09T09:31:45;19.15;;;17.05;;
27666;SDS011;15074;50.940;5.282;2023-04-09T09:34:13;17.58;;;15.90;;
27666;SDS011;15074;50.940;5.282;2023-04-09T09:36:41;17.95;;;16.30;;
27666;SDS011;15074;50.940;5.282;2023-04-09T09:39:07;18.88;;;17.13;;
27666;SDS011;15074;50.940;5.282;2023-04-09T09:41:37;17.38;;;15.90;;
27666;SDS011;15074;50.940;5.282;2023-04-09T09:44:03;13.73;;;12.52;;
27666;SDS011;15074;50.940;5.282;2023-04-09T09:46:35;11.88;;;10.88;;
27666;SDS011;15074;50.940;5.282;2023-04-09T09:49:02;13.40;;;12.25;;
27666;SDS011;15074;50.940;5.282;2023-04-09T09:51:29;12.40;;;11.38;;
27666;SDS011;15074;50.940;5.282;2023-04-09T09:53:56;12.45;;;11.35;;
27666;SDS011;15074;50.940;5.282;2023-04-09T09:56:23;11.65;;;10.65;;
27666;SDS011;15074;50.940;5.282;2023-04-09T10:01:42;12.35;;;11.32;;
27666;SDS011;15074;50.940;5.282;2023-04-09T10:04:11;12.27;;;11.18;;
27666;SDS011;15074;50.940;5.282;2023-04-09T10:06:39;12.00;;;10.90;;
27666;SDS011;15074;50.940;5.282;2023-04-09T10:09:08;10.35;;;9.55;;
27666;SDS011;15074;50.940;5.282;2023-04-09T10:11:35;11.20;;;10.30;;
27666;SDS011;15074;50.940;5.282;2023-04-09T10:14:01;11.30;;;9.40;;
27666;SDS011;15074;50.940;5.282;2023-04-09T10:16:29;10.77;;;9.88;;
27666;SDS011;15074;50.940;5.282;2023-04-09T10:18:56;11.88;;;10.82;;
27666;SDS011;15074;50.940;5.282;2023-04-09T10:21:35;10.57;;;9.60;;
27666;SDS011;15074;50.940;5.282;2023-04-09T10:24:07;11.02;;;10.13;;
27666;SDS011;15074;50.940;5.282;2023-04-09T10:26:34;12.82;;;11.73;;
27666;SDS011;15074;50.940;5.282;2023-04-09T10:29:14;12.25;;;11.35;;
27666;SDS011;15074;50.940;5.282;2023-04-09T10:31:50;10.13;;;9.30;;
27666;SDS011;15074;50.940;5.282;2023-04-09T10:34:19;10.57;;;9.77;;
27666;SDS011;15074;50.940;5.282;2023-04-09T10:37:06;10.88;;;9.98;;
27666;SDS011;15074;50.940;5.282;2023-04-09T10:39:36;10.00;;;9.20;;
27666;SDS011;15074;50.940;5.282;2023-04-09T10:42:12;10.10;;;9.27;;
27666;SDS011;15074;50.940;5.282;2023-04-09T10:44:40;9.23;;;8.52;;
27666;SDS011;15074;50.940;5.282;2023-04-09T10:47:09;12.55;;;11.50;;
27666;SDS011;15074;50.940;5.282;2023-04-09T10:49:39;11.93;;;11.02;;
27666;SDS011;15074;50.940;5.282;2023-04-09T10:52:09;10.02;;;9.23;;
27666;SDS011;15074;50.940;5.282;2023-04-09T10:54:38;8.90;;;8.15;;
27666;SDS011;15074;50.940;5.282;2023-04-09T11:02:10;10.25;;;9.45;;
27666;SDS011;15074;50.940;5.282;2023-04-09T11:07:52;9.15;;;8.35;;
27666;SDS011;15074;50.940;5.282;2023-04-09T11:10:28;9.10;;;8.30;;
27666;SDS011;15074;50.940;5.282;2023-04-09T11:12:54;9.13;;;8.32;;
27666;SDS011;15074;50.940;5.282;2023-04-09T11:15:20;8.93;;;8.15;;
27666;SDS011;15074;50.940;5.282;2023-04-09T11:17:46;8.73;;;8.02;;
27666;SDS011;15074;50.940;5.282;2023-04-09T11:20:13;8.15;;;7.45;;
27666;SDS011;15074;50.940;5.282;2023-04-09T11:22:47;8.35;;;7.55;;
27666;SDS011;15074;50.940;5.282;2023-04-09T11:25:17;8.55;;;7.85;;
27666;SDS011;15074;50.940;5.282;2023-04-09T11:27:48;7.30;;;6.70;;
27666;SDS011;15074;50.940;5.282;2023-04-09T11:30:14;6.75;;;6.22;;
27666;SDS011;15074;50.940;5.282;2023-04-09T11:32:40;6.85;;;6.30;;
27666;SDS011;15074;50.940;5.282;2023-04-09T11:35:10;7.75;;;7.05;;
27666;SDS011;15074;50.940;5.282;2023-04-09T11:37:40;7.13;;;6.53;;
27666;SDS011;15074;50.940;5.282;2023-04-09T11:40:17;7.32;;;6.70;;
27666;SDS011;15074;50.940;5.282;2023-04-09T11:42:43;7.78;;;7.18;;
27666;SDS011;15074;50.940;5.282;2023-04-09T11:45:10;7.47;;;6.87;;
27666;SDS011;15074;50.940;5.282;2023-04-09T11:47:39;7.00;;;6.40;;
27666;SDS011;15074;50.940;5.282;2023-04-09T11:50:06;7.32;;;6.72;;
27666;SDS011;15074;50.940;5.282;2023-04-09T11:52:33;7.07;;;6.47;;
27666;SDS011;15074;50.940;5.282;2023-04-09T11:55:06;7.18;;;6.57;;
27666;SDS011;15074;50.940;5.282;2023-04-09T11:57:40;6.97;;;6.38;;
27666;SDS011;15074;50.940;5.282;2023-04-09T12:00:07;7.47;;;6.82;;
27666;SDS011;15074;50.940;5.282;2023-04-09T12:02:41;7.93;;;7.32;;
27666;SDS011;15074;50.940;5.282;2023-04-09T12:05:10;7.80;;;7.00;;
27666;SDS011;15074;50.940;5.282;2023-04-09T12:07:38;6.53;;;5.93;;
27666;SDS011;15074;50.940;5.282;2023-04-09T12:10:08;7.45;;;6.78;;
27666;SDS011;15074;50.940;5.282;2023-04-09T12:12:44;6.82;;;5.65;;
27666;SDS011;15074;50.940;5.282;2023-04-09T12:15:18;6.88;;;6.22;;
27666;SDS011;15074;50.940;5.282;2023-04-09T12:17:54;7.07;;;6.47;;
27666;SDS011;15074;50.940;5.282;2023-04-09T12:20:28;6.90;;;6.20;;
27666;SDS011;15074;50.940;5.282;2023-04-09T12:22:57;6.72;;;6.13;;
27666;SDS011;15074;50.940;5.282;2023-04-09T12:25:25;7.75;;;5.85;;
27666;SDS011;15074;50.940;5.282;2023-04-09T12:27:52;6.95;;;6.35;;
27666;SDS011;15074;50.940;5.282;2023-04-09T12:30:20;7.15;;;6.55;;
27666;SDS011;15074;50.940;5.282;2023-04-09T12:32:46;6.63;;;6.10;;
27666;SDS011;15074;50.940;5.282;2023-04-09T12:35:12;5.88;;;5.28;;
27666;SDS011;15074;50.940;5.282;2023-04-09T12:37:39;6.25;;;5.65;;
27666;SDS011;15074;50.940;5.282;2023-04-09T12:40:06;6.90;;;6.20;;
27666;SDS011;15074;50.940;5.282;2023-04-09T12:42:33;5.27;;;4.77;;
27666;SDS011;15074;50.940;5.282;2023-04-09T12:44:59;6.10;;;5.50;;
27666;SDS011;15074;50.940;5.282;2023-04-09T12:47:25;5.47;;;4.97;;
27666;SDS011;15074;50.940;5.282;2023-04-09T12:49:52;6.30;;;5.70;;
27666;SDS011;15074;50.940;5.282;2023-04-09T12:52:23;5.80;;;5.22;;
27666;SDS011;15074;50.940;5.282;2023-04-09T12:54:50;5.47;;;5.00;;
27666;SDS011;15074;50.940;5.282;2023-04-09T12:57:16;6.20;;;5.70;;
27666;SDS011;15074;50.940;5.282;2023-04-09T12:59:42;5.60;;;5.10;;
27666;SDS011;15074;50.940;5.282;2023-04-09T13:02:07;6.70;;;5.68;;
27666;SDS011;15074;50.940;5.282;2023-04-09T13:04:33;6.57;;;5.22;;
27666;SDS011;15074;50.940;5.282;2023-04-09T13:06:58;5.28;;;4.78;;
27666;SDS011;15074;50.940;5.282;2023-04-09T13:09:24;5.93;;;5.43;;
27666;SDS011;15074;50.940;5.282;2023-04-09T13:11:50;6.15;;;5.55;;
27666;SDS011;15074;50.940;5.282;2023-04-09T13:14:16;5.68;;;5.18;;
27666;SDS011;15074;50.940;5.282;2023-04-09T13:16:42;6.97;;;6.38;;
27666;SDS011;15074;50.940;5.282;2023-04-09T13:19:08;6.85;;;6.15;;
27666;SDS011;15074;50.940;5.282;2023-04-09T13:21:34;6.00;;;5.50;;
27666;SDS011;15074;50.940;5.282;2023-04-09T13:24:01;8.38;;;5.72;;
27666;SDS011;15074;50.940;5.282;2023-04-09T13:26:27;6.00;;;5.50;;
27666;SDS011;15074;50.940;5.282;2023-04-09T13:28:54;5.65;;;5.20;;
27666;SDS011;15074;50.940;5.282;2023-04-09T13:31:19;5.68;;;5.18;;
27666;SDS011;15074;50.940;5.282;2023-04-09T13:33:45;6.13;;;5.53;;
27666;SDS011;15074;50.940;5.282;2023-04-09T13:36:11;9.93;;;9.20;;
27666;SDS011;15074;50.940;5.282;2023-04-09T13:38:37;6.78;;;6.18;;
27666;SDS011;15074;50.940;5.282;2023-04-09T13:41:03;6.38;;;5.82;;
27666;SDS011;15074;50.940;5.282;2023-04-09T13:43:30;7.15;;;6.45;;
27666;SDS011;15074;50.940;5.282;2023-04-09T13:45:55;7.32;;;6.65;;
27666;SDS011;15074;50.940;5.282;2023-04-09T13:48:23;6.88;;;6.28;;
27666;SDS011;15074;50.940;5.282;2023-04-09T13:50:49;7.03;;;6.43;;
27666;SDS011;15074;50.940;5.282;2023-04-09T13:53:15;6.45;;;5.68;;
27666;SDS011;15074;50.940;5.282;2023-04-09T13:55:41;6.72;;;6.15;;
27666;SDS011;15074;50.940;5.282;2023-04-09T13:58:07;6.47;;;5.75;;
27666;SDS011;15074;50.940;5.282;2023-04-09T14:00:33;7.10;;;6.50;;
27666;SDS011;15074;50.940;5.282;2023-04-09T14:03:00;6.57;;;5.97;;
27666;SDS011;15074;50.940;5.282;2023-04-09T14:05:27;9.45;;;8.55;;
27666;SDS011;15074;50.940;5.282;2023-04-09T14:07:53;9.15;;;7.82;;
27666;SDS011;15074;50.940;5.282;2023-04-09T14:10:19;7.55;;;6.47;;
27666;SDS011;15074;50.940;5.282;2023-04-09T14:12:45;7.40;;;6.72;;
27666;SDS011;15074;50.940;5.282;2023-04-09T14:15:10;5.95;;;5.45;;
27666;SDS011;15074;50.940;5.282;2023-04-09T14:17:36;6.68;;;5.28;;
27666;SDS011;15074;50.940;5.282;2023-04-09T14:20:02;5.22;;;4.82;;
27666;SDS011;15074;50.940;5.282;2023-04-09T14:22:28;4.72;;;4.32;;
27666;SDS011;15074;50.940;5.282;2023-04-09T14:24:54;5.15;;;4.75;;
27666;SDS011;15074;50.940;5.282;2023-04-09T14:27:20;4.95;;;4.55;;
27666;SDS011;15074;50.940;5.282;2023-04-09T14:29:46;4.60;;;4.20;;
27666;SDS011;15074;50.940;5.282;2023-04-09T14:32:12;5.32;;;4.82;;
27666;SDS011;15074;50.940;5.282;2023-04-09T14:34:37;5.88;;;5.38;;
27666;SDS011;15074;50.940;5.282;2023-04-09T14:37:03;6.57;;;4.90;;
27666;SDS011;15074;50.940;5.282;2023-04-09T14:39:29;6.30;;;5.70;;
27666;SDS011;15074;50.940;5.282;2023-04-09T14:41:55;5.72;;;5.22;;
27666;SDS011;15074;50.940;5.282;2023-04-09T14:44:21;5.85;;;5.35;;
27666;SDS011;15074;50.940;5.282;2023-04-09T14:46:50;5.68;;;5.18;;
27666;SDS011;15074;50.940;5.282;2023-04-09T14:49:22;5.57;;;5.03;;
27666;SDS011;15074;50.940;5.282;2023-04-09T14:51:48;6.40;;;5.90;;
27666;SDS011;15074;50.940;5.282;2023-04-09T14:54:13;6.13;;;5.53;;
27666;SDS011;15074;50.940;5.282;2023-04-09T14:56:39;5.63;;;5.13;;
27666;SDS011;15074;50.940;5.282;2023-04-09T14:59:05;5.70;;;5.20;;
27666;SDS011;15074;50.940;5.282;2023-04-09T15:01:31;6.07;;;5.57;;
27666;SDS011;15074;50.940;5.282;2023-04-09T15:03:56;5.55;;;5.05;;